sensor_id;sensor_type;location;lat;lon;timestamp;P1;durP1;ratioP1;P2;durP2;ratioP2
5133;SDS011;2585;48.696;10.066;2024-03-25T00:00:19;2.95;;;2.20;;
5133;SDS011;2585;48.696;10.066;2024-03-25T00:02:46;4.95;;;2.03;;
5133;SDS011;2585;48.696;10.066;2024-03-25T00:05:12;6.23;;;2.43;;
5133;SDS011;2585;48.696;10.066;2024-03-25T00:07:40;7.65;;;2.40;;
5133;SDS011;2585;48.696;10.066;2024-03-25T00:10:06;3.58;;;1.77;;
5133;SDS011;2585;48.696;10.066;2024-03-25T00:12:34;4.90;;;2.25;;
5133;SDS011;2585;48.696;10.066;2024-03-25T00:15:01;5.50;;;2.50;;
5133;SDS011;2585;48.696;10.066;2024-03-25T00:17:27;2.57;;;2.17;;
5133;SDS011;2585;48.696;10.066;2024-03-25T00:19:52;3.73;;;2.40;;
5133;SDS011;2585;48.696;10.066;2024-03-25T00:22:19;4.77;;;2.53;;
5133;SDS011;2585;48.696;10.066;2024-03-25T00:24:46;3.13;;;2.25;;
5133;SDS011;2585;48.696;10.066;2024-03-25T00:27:12;5.85;;;2.20;;
5133;SDS011;2585;48.696;10.066;2024-03-25T00:29:38;5.18;;;2.30;;
5133;SDS011;2585;48.696;10.066;2024-03-25T00:32:05;5.33;;;2.80;;
5133;SDS011;2585;48.696;10.066;2024-03-25T00:34:31;5.70;;;2.35;;
5133;SDS011;2585;48.696;10.066;2024-03-25T00:36:58;3.60;;;2.45;;
5133;SDS011;2585;48.696;10.066;2024-03-25T00:39:27;7.18;;;2.25;;
5133;SDS011;2585;48.696;10.066;2024-03-25T00:41:53;5.83;;;2.30;;
5133;SDS011;2585;48.696;10.066;2024-03-25T00:44:19;5.75;;;1.90;;
5133;SDS011;2585;48.696;10.066;2024-03-25T00:46:45;4.30;;;2.13;;
5133;SDS011;2585;48.696;10.066;2024-03-25T00:49:11;6.78;;;2.30;;
5133;SDS011;2585;48.696;10.066;2024-03-25T00:51:37;2.90;;;1.90;;
5133;SDS011;2585;48.696;10.066;2024-03-25T00:54:03;7.07;;;2.60;;
5133;SDS011;2585;48.696;10.066;2024-03-25T00:56:30;3.67;;;2.40;;
5133;SDS011;2585;48.696;10.066;2024-03-25T00:58:56;3.30;;;2.33;;
5133;SDS011;2585;48.696;10.066;2024-03-25T01:01:23;5.88;;;2.40;;
5133;SDS011;2585;48.696;10.066;2024-03-25T01:03:49;3.28;;;2.50;;
5133;SDS011;2585;48.696;10.066;2024-03-25T01:06:15;6.27;;;2.60;;
5133;SDS011;2585;48.696;10.066;2024-03-25T01:08:41;6.03;;;2.60;;
5133;SDS011;2585;48.696;10.066;2024-03-25T01:11:07;4.70;;;2.53;;
5133;SDS011;2585;48.696;10.066;2024-03-25T01:13:32;14.80;;;3.60;;
5133;SDS011;2585;48.696;10.066;2024-03-25T01:15:58;2.77;;;2.20;;
5133;SDS011;2585;48.696;10.066;2024-03-25T01:18:24;4.87;;;3.07;;
5133;SDS011;2585;48.696;10.066;2024-03-25T01:20:50;4.20;;;2.57;;
5133;SDS011;2585;48.696;10.066;2024-03-25T01:23:16;7.33;;;2.00;;
5133;SDS011;2585;48.696;10.066;2024-03-25T01:25:42;11.40;;;3.87;;
5133;SDS011;2585;48.696;10.066;2024-03-25T01:28:07;4.60;;;2.97;;
5133;SDS011;2585;48.696;10.066;2024-03-25T01:30:33;4.57;;;2.97;;
5133;SDS011;2585;48.696;10.066;2024-03-25T01:33:01;3.85;;;2.75;;
5133;SDS011;2585;48.696;10.066;2024-03-25T01:35:27;4.57;;;2.90;;
5133;SDS011;2585;48.696;10.066;2024-03-25T01:37:53;6.50;;;2.57;;
5133;SDS011;2585;48.696;10.066;2024-03-25T01:40:19;5.80;;;2.83;;
5133;SDS011;2585;48.696;10.066;2024-03-25T01:42:55;11.83;;;2.70;;
5133;SDS011;2585;48.696;10.066;2024-03-25T01:45:25;5.40;;;3.65;;
5133;SDS011;2585;48.696;10.066;2024-03-25T01:47:52;15.35;;;3.70;;
5133;SDS011;2585;48.696;10.066;2024-03-25T01:50:19;5.68;;;2.80;;
5133;SDS011;2585;48.696;10.066;2024-03-25T01:52:47;8.60;;;3.20;;
5133;SDS011;2585;48.696;10.066;2024-03-25T01:55:15;6.07;;;3.00;;
5133;SDS011;2585;48.696;10.066;2024-03-25T01:57:53;6.43;;;2.70;;
5133;SDS011;2585;48.696;10.066;2024-03-25T02:00:19;4.13;;;2.20;;
5133;SDS011;2585;48.696;10.066;2024-03-25T02:02:45;4.35;;;2.75;;
5133;SDS011;2585;48.696;10.066;2024-03-25T02:05:13;3.78;;;2.80;;
5133;SDS011;2585;48.696;10.066;2024-03-25T02:07:41;5.10;;;2.65;;
5133;SDS011;2585;48.696;10.066;2024-03-25T02:10:08;3.03;;;2.72;;
5133;SDS011;2585;48.696;10.066;2024-03-25T02:12:43;4.68;;;2.60;;
5133;SDS011;2585;48.696;10.066;2024-03-25T02:15:11;3.83;;;2.72;;
5133;SDS011;2585;48.696;10.066;2024-03-25T02:17:38;6.78;;;2.90;;
5133;SDS011;2585;48.696;10.066;2024-03-25T02:20:04;3.20;;;2.40;;
5133;SDS011;2585;48.696;10.066;2024-03-25T02:22:32;6.63;;;3.15;;
5133;SDS011;2585;48.696;10.066;2024-03-25T02:24:58;4.47;;;2.85;;
5133;SDS011;2585;48.696;10.066;2024-03-25T02:27:26;5.97;;;2.78;;
5133;SDS011;2585;48.696;10.066;2024-03-25T02:32:31;5.00;;;2.55;;
5133;SDS011;2585;48.696;10.066;2024-03-25T02:34:57;6.53;;;2.30;;
5133;SDS011;2585;48.696;10.066;2024-03-25T02:37:23;7.50;;;4.18;;
5133;SDS011;2585;48.696;10.066;2024-03-25T02:39:51;3.63;;;2.83;;
5133;SDS011;2585;48.696;10.066;2024-03-25T02:42:18;9.05;;;2.78;;
5133;SDS011;2585;48.696;10.066;2024-03-25T02:44:44;4.03;;;2.72;;
5133;SDS011;2585;48.696;10.066;2024-03-25T02:47:11;6.20;;;3.15;;
5133;SDS011;2585;48.696;10.066;2024-03-25T02:49:37;10.02;;;3.25;;
5133;SDS011;2585;48.696;10.066;2024-03-25T02:52:03;9.10;;;3.70;;
5133;SDS011;2585;48.696;10.066;2024-03-25T02:54:29;3.58;;;2.63;;
5133;SDS011;2585;48.696;10.066;2024-03-25T02:56:54;8.53;;;2.63;;
5133;SDS011;2585;48.696;10.066;2024-03-25T02:59:20;5.77;;;2.93;;
5133;SDS011;2585;48.696;10.066;2024-03-25T03:01:46;6.83;;;2.80;;
5133;SDS011;2585;48.696;10.066;2024-03-25T03:04:12;7.07;;;3.60;;
5133;SDS011;2585;48.696;10.066;2024-03-25T03:06:38;5.20;;;2.73;;
5133;SDS011;2585;48.696;10.066;2024-03-25T03:09:04;8.03;;;3.10;;
5133;SDS011;2585;48.696;10.066;2024-03-25T03:11:30;4.47;;;2.67;;
5133;SDS011;2585;48.696;10.066;2024-03-25T03:13:56;5.07;;;4.57;;
5133;SDS011;2585;48.696;10.066;2024-03-25T03:16:22;7.73;;;2.77;;
5133;SDS011;2585;48.696;10.066;2024-03-25T03:18:48;6.30;;;3.27;;
5133;SDS011;2585;48.696;10.066;2024-03-25T03:21:13;4.67;;;2.70;;
5133;SDS011;2585;48.696;10.066;2024-03-25T03:23:39;8.57;;;3.43;;
5133;SDS011;2585;48.696;10.066;2024-03-25T03:26:05;6.10;;;2.80;;
5133;SDS011;2585;48.696;10.066;2024-03-25T03:28:31;5.80;;;2.93;;
5133;SDS011;2585;48.696;10.066;2024-03-25T03:30:57;6.97;;;3.20;;
5133;SDS011;2585;48.696;10.066;2024-03-25T03:33:22;7.70;;;3.27;;
5133;SDS011;2585;48.696;10.066;2024-03-25T03:35:49;6.87;;;2.70;;
5133;SDS011;2585;48.696;10.066;2024-03-25T03:38:15;4.25;;;2.92;;
5133;SDS011;2585;48.696;10.066;2024-03-25T03:40:41;6.70;;;3.33;;
5133;SDS011;2585;48.696;10.066;2024-03-25T03:43:06;8.73;;;3.70;;
5133;SDS011;2585;48.696;10.066;2024-03-25T03:45:33;15.23;;;3.10;;
5133;SDS011;2585;48.696;10.066;2024-03-25T03:48:00;8.70;;;3.40;;
5133;SDS011;2585;48.696;10.066;2024-03-25T03:50:26;8.90;;;3.77;;
5133;SDS011;2585;48.696;10.066;2024-03-25T03:52:52;5.13;;;3.37;;
5133;SDS011;2585;48.696;10.066;2024-03-25T03:55:18;3.78;;;2.75;;
5133;SDS011;2585;48.696;10.066;2024-03-25T03:57:44;11.25;;;3.08;;
5133;SDS011;2585;48.696;10.066;2024-03-25T04:00:10;6.30;;;2.80;;
5133;SDS011;2585;48.696;10.066;2024-03-25T04:02:37;6.82;;;2.85;;
5133;SDS011;2585;48.696;10.066;2024-03-25T04:05:03;8.23;;;3.15;;
5133;SDS011;2585;48.696;10.066;2024-03-25T04:07:29;8.68;;;3.00;;
5133;SDS011;2585;48.696;10.066;2024-03-25T04:09:57;10.50;;;3.15;;
5133;SDS011;2585;48.696;10.066;2024-03-25T04:12:25;6.20;;;3.10;;
5133;SDS011;2585;48.696;10.066;2024-03-25T04:14:51;6.25;;;3.20;;
5133;SDS011;2585;48.696;10.066;2024-03-25T04:17:20;7.25;;;2.67;;
5133;SDS011;2585;48.696;10.066;2024-03-25T04:19:48;10.57;;;3.70;;
5133;SDS011;2585;48.696;10.066;2024-03-25T04:22:14;5.07;;;2.78;;
5133;SDS011;2585;48.696;10.066;2024-03-25T04:24:40;9.17;;;3.60;;
5133;SDS011;2585;48.696;10.066;2024-03-25T04:27:06;9.83;;;3.43;;
5133;SDS011;2585;48.696;10.066;2024-03-25T04:29:32;6.43;;;3.30;;
5133;SDS011;2585;48.696;10.066;2024-03-25T04:31:57;6.43;;;3.87;;
5133;SDS011;2585;48.696;10.066;2024-03-25T04:34:23;10.83;;;3.63;;
5133;SDS011;2585;48.696;10.066;2024-03-25T04:36:49;6.33;;;3.23;;
5133;SDS011;2585;48.696;10.066;2024-03-25T04:39:15;6.63;;;3.13;;
5133;SDS011;2585;48.696;10.066;2024-03-25T04:41:41;6.78;;;3.00;;
5133;SDS011;2585;48.696;10.066;2024-03-25T04:44:07;6.00;;;3.30;;
5133;SDS011;2585;48.696;10.066;2024-03-25T04:46:33;5.60;;;2.97;;
5133;SDS011;2585;48.696;10.066;2024-03-25T04:48:59;5.70;;;3.13;;
5133;SDS011;2585;48.696;10.066;2024-03-25T04:51:25;8.20;;;4.17;;
5133;SDS011;2585;48.696;10.066;2024-03-25T04:53:52;8.35;;;3.45;;
5133;SDS011;2585;48.696;10.066;2024-03-25T04:56:18;8.82;;;3.83;;
5133;SDS011;2585;48.696;10.066;2024-03-25T04:58:44;7.70;;;4.30;;
5133;SDS011;2585;48.696;10.066;2024-03-25T05:01:10;7.17;;;4.20;;
5133;SDS011;2585;48.696;10.066;2024-03-25T05:03:36;5.70;;;3.10;;
5133;SDS011;2585;48.696;10.066;2024-03-25T05:06:01;8.00;;;3.33;;
5133;SDS011;2585;48.696;10.066;2024-03-25T05:08:28;6.57;;;3.28;;
5133;SDS011;2585;48.696;10.066;2024-03-25T05:10:54;6.20;;;3.43;;
5133;SDS011;2585;48.696;10.066;2024-03-25T05:13:19;9.87;;;4.00;;
5133;SDS011;2585;48.696;10.066;2024-03-25T05:15:51;7.10;;;3.63;;
5133;SDS011;2585;48.696;10.066;2024-03-25T05:18:18;5.00;;;3.55;;
5133;SDS011;2585;48.696;10.066;2024-03-25T05:20:44;5.85;;;3.42;;
5133;SDS011;2585;48.696;10.066;2024-03-25T05:23:10;9.82;;;3.97;;
5133;SDS011;2585;48.696;10.066;2024-03-25T05:25:36;5.53;;;3.50;;
5133;SDS011;2585;48.696;10.066;2024-03-25T05:28:04;7.57;;;4.45;;
5133;SDS011;2585;48.696;10.066;2024-03-25T05:30:30;6.45;;;2.75;;
5133;SDS011;2585;48.696;10.066;2024-03-25T05:32:56;10.40;;;4.00;;
5133;SDS011;2585;48.696;10.066;2024-03-25T05:35:22;6.20;;;3.77;;
5133;SDS011;2585;48.696;10.066;2024-03-25T05:37:47;5.87;;;3.50;;
5133;SDS011;2585;48.696;10.066;2024-03-25T05:40:13;13.10;;;3.80;;
5133;SDS011;2585;48.696;10.066;2024-03-25T05:42:40;7.85;;;3.85;;
5133;SDS011;2585;48.696;10.066;2024-03-25T05:45:09;9.07;;;4.50;;
5133;SDS011;2585;48.696;10.066;2024-03-25T05:47:35;10.70;;;3.80;;
5133;SDS011;2585;48.696;10.066;2024-03-25T05:50:01;19.43;;;3.80;;
5133;SDS011;2585;48.696;10.066;2024-03-25T05:52:30;5.25;;;3.60;;
5133;SDS011;2585;48.696;10.066;2024-03-25T05:54:57;9.30;;;3.75;;
5133;SDS011;2585;48.696;10.066;2024-03-25T05:57:23;5.93;;;3.17;;
5133;SDS011;2585;48.696;10.066;2024-03-25T05:59:49;8.87;;;3.30;;
5133;SDS011;2585;48.696;10.066;2024-03-25T06:02:14;4.83;;;3.70;;
5133;SDS011;2585;48.696;10.066;2024-03-25T06:04:40;5.63;;;2.72;;
5133;SDS011;2585;48.696;10.066;2024-03-25T06:07:06;7.77;;;3.50;;
5133;SDS011;2585;48.696;10.066;2024-03-25T06:09:32;4.77;;;3.10;;
5133;SDS011;2585;48.696;10.066;2024-03-25T06:11:58;5.40;;;3.30;;
5133;SDS011;2585;48.696;10.066;2024-03-25T06:14:24;3.40;;;2.43;;
5133;SDS011;2585;48.696;10.066;2024-03-25T06:16:50;8.77;;;3.97;;
5133;SDS011;2585;48.696;10.066;2024-03-25T06:19:16;8.07;;;3.50;;
5133;SDS011;2585;48.696;10.066;2024-03-25T06:21:41;7.77;;;3.10;;
5133;SDS011;2585;48.696;10.066;2024-03-25T06:24:08;8.23;;;4.03;;
5133;SDS011;2585;48.696;10.066;2024-03-25T06:26:34;7.72;;;3.53;;
5133;SDS011;2585;48.696;10.066;2024-03-25T06:29:00;6.80;;;3.97;;
5133;SDS011;2585;48.696;10.066;2024-03-25T06:31:25;8.77;;;4.20;;
5133;SDS011;2585;48.696;10.066;2024-03-25T06:34:10;7.68;;;3.00;;
5133;SDS011;2585;48.696;10.066;2024-03-25T06:36:47;6.97;;;3.63;;
5133;SDS011;2585;48.696;10.066;2024-03-25T06:39:13;10.15;;;3.90;;
5133;SDS011;2585;48.696;10.066;2024-03-25T06:41:40;7.15;;;3.47;;
5133;SDS011;2585;48.696;10.066;2024-03-25T06:44:06;10.02;;;3.25;;
5133;SDS011;2585;48.696;10.066;2024-03-25T06:46:33;7.10;;;3.45;;
5133;SDS011;2585;48.696;10.066;2024-03-25T06:48:59;10.98;;;4.32;;
5133;SDS011;2585;48.696;10.066;2024-03-25T06:51:25;7.35;;;4.68;;
5133;SDS011;2585;48.696;10.066;2024-03-25T06:53:51;13.90;;;4.68;;
5133;SDS011;2585;48.696;10.066;2024-03-25T06:56:17;9.38;;;4.30;;
5133;SDS011;2585;48.696;10.066;2024-03-25T06:58:43;10.17;;;4.17;;
5133;SDS011;2585;48.696;10.066;2024-03-25T07:01:09;7.00;;;4.20;;
5133;SDS011;2585;48.696;10.066;2024-03-25T07:03:38;8.52;;;3.70;;
5133;SDS011;2585;48.696;10.066;2024-03-25T07:06:04;7.90;;;3.73;;
5133;SDS011;2585;48.696;10.066;2024-03-25T07:08:30;7.32;;;4.47;;
5133;SDS011;2585;48.696;10.066;2024-03-25T07:10:57;9.40;;;4.35;;
5133;SDS011;2585;48.696;10.066;2024-03-25T07:13:23;7.32;;;4.03;;
5133;SDS011;2585;48.696;10.066;2024-03-25T07:15:49;9.10;;;4.30;;
5133;SDS011;2585;48.696;10.066;2024-03-25T07:18:15;7.70;;;4.25;;
5133;SDS011;2585;48.696;10.066;2024-03-25T07:20:42;11.05;;;3.63;;
5133;SDS011;2585;48.696;10.066;2024-03-25T07:23:09;5.88;;;3.80;;
5133;SDS011;2585;48.696;10.066;2024-03-25T07:25:35;10.98;;;4.20;;
5133;SDS011;2585;48.696;10.066;2024-03-25T07:28:01;13.47;;;4.27;;
5133;SDS011;2585;48.696;10.066;2024-03-25T07:30:28;7.65;;;4.07;;
5133;SDS011;2585;48.696;10.066;2024-03-25T07:32:54;16.52;;;5.75;;
5133;SDS011;2585;48.696;10.066;2024-03-25T07:35:20;19.43;;;4.43;;
5133;SDS011;2585;48.696;10.066;2024-03-25T07:37:46;12.90;;;4.53;;
5133;SDS011;2585;48.696;10.066;2024-03-25T07:40:16;6.23;;;3.80;;
5133;SDS011;2585;48.696;10.066;2024-03-25T07:42:46;6.33;;;4.57;;
5133;SDS011;2585;48.696;10.066;2024-03-25T07:45:13;9.40;;;5.03;;
5133;SDS011;2585;48.696;10.066;2024-03-25T07:47:39;7.00;;;4.97;;
5133;SDS011;2585;48.696;10.066;2024-03-25T07:50:05;5.33;;;3.73;;
5133;SDS011;2585;48.696;10.066;2024-03-25T07:52:32;7.47;;;4.20;;
5133;SDS011;2585;48.696;10.066;2024-03-25T07:54:58;7.37;;;3.77;;
5133;SDS011;2585;48.696;10.066;2024-03-25T07:57:24;5.70;;;3.00;;
5133;SDS011;2585;48.696;10.066;2024-03-25T07:59:49;6.03;;;3.30;;
5133;SDS011;2585;48.696;10.066;2024-03-25T08:02:15;9.77;;;3.57;;
5133;SDS011;2585;48.696;10.066;2024-03-25T08:04:41;8.43;;;4.03;;
5133;SDS011;2585;48.696;10.066;2024-03-25T08:07:07;6.10;;;3.53;;
5133;SDS011;2585;48.696;10.066;2024-03-25T08:09:33;9.67;;;4.13;;
5133;SDS011;2585;48.696;10.066;2024-03-25T08:11:59;9.70;;;4.10;;
5133;SDS011;2585;48.696;10.066;2024-03-25T08:14:24;8.17;;;4.63;;
5133;SDS011;2585;48.696;10.066;2024-03-25T08:16:50;5.93;;;3.90;;
5133;SDS011;2585;48.696;10.066;2024-03-25T08:19:16;8.40;;;3.73;;
5133;SDS011;2585;48.696;10.066;2024-03-25T08:21:42;4.60;;;3.33;;
5133;SDS011;2585;48.696;10.066;2024-03-25T08:24:08;4.43;;;3.60;;
5133;SDS011;2585;48.696;10.066;2024-03-25T08:26:34;13.20;;;3.80;;
5133;SDS011;2585;48.696;10.066;2024-03-25T08:28:59;11.30;;;3.40;;
5133;SDS011;2585;48.696;10.066;2024-03-25T08:31:25;5.60;;;3.33;;
5133;SDS011;2585;48.696;10.066;2024-03-25T08:33:52;8.53;;;2.97;;
5133;SDS011;2585;48.696;10.066;2024-03-25T08:36:18;7.33;;;4.13;;
5133;SDS011;2585;48.696;10.066;2024-03-25T08:38:44;14.70;;;4.00;;
5133;SDS011;2585;48.696;10.066;2024-03-25T08:41:10;7.83;;;3.73;;
5133;SDS011;2585;48.696;10.066;2024-03-25T08:43:36;6.47;;;3.57;;
5133;SDS011;2585;48.696;10.066;2024-03-25T08:46:02;5.60;;;2.90;;
5133;SDS011;2585;48.696;10.066;2024-03-25T08:48:29;7.13;;;3.57;;
5133;SDS011;2585;48.696;10.066;2024-03-25T08:50:55;7.53;;;3.07;;
5133;SDS011;2585;48.696;10.066;2024-03-25T08:53:21;8.33;;;2.97;;
5133;SDS011;2585;48.696;10.066;2024-03-25T08:55:47;16.27;;;4.70;;
5133;SDS011;2585;48.696;10.066;2024-03-25T08:58:13;4.73;;;2.90;;
5133;SDS011;2585;48.696;10.066;2024-03-25T09:00:40;11.83;;;3.10;;
5133;SDS011;2585;48.696;10.066;2024-03-25T09:03:05;17.20;;;3.00;;
5133;SDS011;2585;48.696;10.066;2024-03-25T09:05:31;8.60;;;3.13;;
5133;SDS011;2585;48.696;10.066;2024-03-25T09:07:58;8.87;;;3.23;;
5133;SDS011;2585;48.696;10.066;2024-03-25T09:10:25;9.47;;;2.70;;
5133;SDS011;2585;48.696;10.066;2024-03-25T09:13:09;3.77;;;2.37;;
5133;SDS011;2585;48.696;10.066;2024-03-25T09:15:36;7.30;;;3.30;;
5133;SDS011;2585;48.696;10.066;2024-03-25T09:18:01;5.60;;;2.67;;
5133;SDS011;2585;48.696;10.066;2024-03-25T09:20:27;7.70;;;2.77;;
5133;SDS011;2585;48.696;10.066;2024-03-25T09:22:53;11.23;;;3.00;;
5133;SDS011;2585;48.696;10.066;2024-03-25T09:25:19;4.20;;;3.10;;
5133;SDS011;2585;48.696;10.066;2024-03-25T09:27:49;11.23;;;2.40;;
5133;SDS011;2585;48.696;10.066;2024-03-25T09:30:16;7.40;;;2.77;;
5133;SDS011;2585;48.696;10.066;2024-03-25T09:32:44;5.70;;;3.47;;
5133;SDS011;2585;48.696;10.066;2024-03-25T09:35:10;7.13;;;3.10;;
5133;SDS011;2585;48.696;10.066;2024-03-25T09:37:36;6.17;;;3.20;;
5133;SDS011;2585;48.696;10.066;2024-03-25T09:40:03;5.97;;;2.90;;
5133;SDS011;2585;48.696;10.066;2024-03-25T09:42:33;6.77;;;2.60;;
5133;SDS011;2585;48.696;10.066;2024-03-25T09:45:05;3.60;;;2.47;;
5133;SDS011;2585;48.696;10.066;2024-03-25T09:47:34;6.03;;;2.50;;
5133;SDS011;2585;48.696;10.066;2024-03-25T09:50:02;3.40;;;2.43;;
5133;SDS011;2585;48.696;10.066;2024-03-25T09:52:31;7.87;;;2.60;;
5133;SDS011;2585;48.696;10.066;2024-03-25T09:54:57;4.93;;;2.67;;
5133;SDS011;2585;48.696;10.066;2024-03-25T09:57:22;9.83;;;2.37;;
5133;SDS011;2585;48.696;10.066;2024-03-25T09:59:50;11.53;;;4.07;;
5133;SDS011;2585;48.696;10.066;2024-03-25T10:02:16;6.47;;;2.70;;
5133;SDS011;2585;48.696;10.066;2024-03-25T10:04:44;6.63;;;2.67;;
5133;SDS011;2585;48.696;10.066;2024-03-25T10:07:21;5.90;;;2.67;;
5133;SDS011;2585;48.696;10.066;2024-03-25T10:09:48;6.80;;;2.70;;
5133;SDS011;2585;48.696;10.066;2024-03-25T10:12:14;4.20;;;2.77;;
5133;SDS011;2585;48.696;10.066;2024-03-25T10:14:41;3.63;;;2.10;;
5133;SDS011;2585;48.696;10.066;2024-03-25T10:17:06;3.40;;;2.40;;
5133;SDS011;2585;48.696;10.066;2024-03-25T10:19:33;4.47;;;2.30;;
5133;SDS011;2585;48.696;10.066;2024-03-25T10:22:06;3.03;;;2.27;;
5133;SDS011;2585;48.696;10.066;2024-03-25T10:24:39;2.30;;;2.10;;
5133;SDS011;2585;48.696;10.066;2024-03-25T10:27:22;3.60;;;2.37;;
5133;SDS011;2585;48.696;10.066;2024-03-25T10:29:51;7.93;;;2.93;;
5133;SDS011;2585;48.696;10.066;2024-03-25T10:32:23;4.00;;;2.53;;
5133;SDS011;2585;48.696;10.066;2024-03-25T10:34:50;5.77;;;2.57;;
5133;SDS011;2585;48.696;10.066;2024-03-25T10:37:16;5.27;;;2.57;;
5133;SDS011;2585;48.696;10.066;2024-03-25T10:39:49;2.47;;;1.93;;
5133;SDS011;2585;48.696;10.066;2024-03-25T10:42:19;5.00;;;2.10;;
5133;SDS011;2585;48.696;10.066;2024-03-25T10:44:49;6.43;;;2.40;;
5133;SDS011;2585;48.696;10.066;2024-03-25T10:47:21;5.43;;;2.17;;
5133;SDS011;2585;48.696;10.066;2024-03-25T10:52:19;4.67;;;2.80;;
5133;SDS011;2585;48.696;10.066;2024-03-25T10:54:47;2.77;;;2.00;;
5133;SDS011;2585;48.696;10.066;2024-03-25T10:57:13;4.80;;;1.87;;
5133;SDS011;2585;48.696;10.066;2024-03-25T10:59:42;5.70;;;2.47;;
5133;SDS011;2585;48.696;10.066;2024-03-25T11:02:09;3.17;;;2.10;;
5133;SDS011;2585;48.696;10.066;2024-03-25T11:04:36;3.03;;;1.80;;
5133;SDS011;2585;48.696;10.066;2024-03-25T11:07:07;5.40;;;2.40;;
5133;SDS011;2585;48.696;10.066;2024-03-25T11:09:32;3.73;;;1.77;;
5133;SDS011;2585;48.696;10.066;2024-03-25T11:11:58;4.10;;;2.07;;
5133;SDS011;2585;48.696;10.066;2024-03-25T11:14:25;5.00;;;1.83;;
5133;SDS011;2585;48.696;10.066;2024-03-25T11:16:51;1.60;;;1.50;;
5133;SDS011;2585;48.696;10.066;2024-03-25T11:19:18;3.30;;;1.60;;
5133;SDS011;2585;48.696;10.066;2024-03-25T11:21:46;2.20;;;1.77;;
5133;SDS011;2585;48.696;10.066;2024-03-25T11:24:12;5.00;;;1.60;;
5133;SDS011;2585;48.696;10.066;2024-03-25T11:26:41;3.17;;;2.00;;
5133;SDS011;2585;48.696;10.066;2024-03-25T11:29:08;3.60;;;1.90;;
5133;SDS011;2585;48.696;10.066;2024-03-25T11:31:34;2.53;;;1.80;;
5133;SDS011;2585;48.696;10.066;2024-03-25T11:34:04;4.20;;;1.70;;
5133;SDS011;2585;48.696;10.066;2024-03-25T11:36:31;4.90;;;2.20;;
5133;SDS011;2585;48.696;10.066;2024-03-25T11:39:00;3.70;;;2.17;;
5133;SDS011;2585;48.696;10.066;2024-03-25T11:41:34;6.23;;;2.40;;
5133;SDS011;2585;48.696;10.066;2024-03-25T11:44:04;3.70;;;2.33;;
5133;SDS011;2585;48.696;10.066;2024-03-25T11:46:30;3.23;;;1.60;;
5133;SDS011;2585;48.696;10.066;2024-03-25T11:48:56;5.37;;;3.40;;
5133;SDS011;2585;48.696;10.066;2024-03-25T11:51:22;4.43;;;2.47;;
5133;SDS011;2585;48.696;10.066;2024-03-25T11:53:48;10.23;;;3.60;;
5133;SDS011;2585;48.696;10.066;2024-03-25T11:56:14;7.63;;;3.97;;
5133;SDS011;2585;48.696;10.066;2024-03-25T11:58:40;11.90;;;3.97;;
5133;SDS011;2585;48.696;10.066;2024-03-25T12:01:06;3.77;;;2.20;;
5133;SDS011;2585;48.696;10.066;2024-03-25T12:03:34;5.00;;;2.37;;
5133;SDS011;2585;48.696;10.066;2024-03-25T12:06:00;5.77;;;2.60;;
5133;SDS011;2585;48.696;10.066;2024-03-25T12:08:26;7.30;;;2.60;;
5133;SDS011;2585;48.696;10.066;2024-03-25T12:10:54;4.60;;;2.83;;
5133;SDS011;2585;48.696;10.066;2024-03-25T12:13:38;4.00;;;2.70;;
5133;SDS011;2585;48.696;10.066;2024-03-25T12:16:08;5.43;;;2.27;;
5133;SDS011;2585;48.696;10.066;2024-03-25T12:18:35;4.97;;;2.13;;
5133;SDS011;2585;48.696;10.066;2024-03-25T12:21:04;6.23;;;2.67;;
5133;SDS011;2585;48.696;10.066;2024-03-25T12:23:30;3.90;;;2.23;;
5133;SDS011;2585;48.696;10.066;2024-03-25T12:25:59;5.40;;;2.67;;
5133;SDS011;2585;48.696;10.066;2024-03-25T12:28:25;3.97;;;2.20;;
5133;SDS011;2585;48.696;10.066;2024-03-25T12:30:55;5.27;;;2.03;;
5133;SDS011;2585;48.696;10.066;2024-03-25T12:33:21;3.43;;;2.20;;
5133;SDS011;2585;48.696;10.066;2024-03-25T12:35:48;6.20;;;2.30;;
5133;SDS011;2585;48.696;10.066;2024-03-25T12:41:08;4.83;;;2.53;;
5133;SDS011;2585;48.696;10.066;2024-03-25T12:43:36;4.80;;;2.40;;
5133;SDS011;2585;48.696;10.066;2024-03-25T12:46:07;7.10;;;2.60;;
5133;SDS011;2585;48.696;10.066;2024-03-25T12:48:34;5.00;;;2.10;;
5133;SDS011;2585;48.696;10.066;2024-03-25T12:51:01;5.40;;;2.60;;
5133;SDS011;2585;48.696;10.066;2024-03-25T12:53:26;3.13;;;2.00;;
5133;SDS011;2585;48.696;10.066;2024-03-25T12:55:53;5.33;;;2.70;;
5133;SDS011;2585;48.696;10.066;2024-03-25T12:58:18;5.87;;;2.70;;
5133;SDS011;2585;48.696;10.066;2024-03-25T13:00:44;5.93;;;2.67;;
5133;SDS011;2585;48.696;10.066;2024-03-25T13:03:10;3.53;;;2.60;;
5133;SDS011;2585;48.696;10.066;2024-03-25T13:05:37;3.77;;;2.97;;
5133;SDS011;2585;48.696;10.066;2024-03-25T13:08:03;5.13;;;2.63;;
5133;SDS011;2585;48.696;10.066;2024-03-25T13:10:29;5.10;;;2.40;;
5133;SDS011;2585;48.696;10.066;2024-03-25T13:12:56;4.70;;;2.90;;
5133;SDS011;2585;48.696;10.066;2024-03-25T13:15:22;8.43;;;3.10;;
5133;SDS011;2585;48.696;10.066;2024-03-25T13:17:48;6.23;;;2.97;;
5133;SDS011;2585;48.696;10.066;2024-03-25T13:20:15;5.23;;;2.67;;
5133;SDS011;2585;48.696;10.066;2024-03-25T13:22:40;4.77;;;2.63;;
5133;SDS011;2585;48.696;10.066;2024-03-25T13:25:08;3.13;;;2.70;;
5133;SDS011;2585;48.696;10.066;2024-03-25T13:27:34;3.57;;;2.47;;
5133;SDS011;2585;48.696;10.066;2024-03-25T13:30:00;3.80;;;2.70;;
5133;SDS011;2585;48.696;10.066;2024-03-25T13:32:26;3.20;;;2.30;;
5133;SDS011;2585;48.696;10.066;2024-03-25T13:34:52;2.67;;;2.43;;
5133;SDS011;2585;48.696;10.066;2024-03-25T13:37:17;6.10;;;2.40;;
5133;SDS011;2585;48.696;10.066;2024-03-25T13:39:43;4.40;;;2.50;;
5133;SDS011;2585;48.696;10.066;2024-03-25T13:42:11;4.00;;;2.80;;
5133;SDS011;2585;48.696;10.066;2024-03-25T13:44:37;2.80;;;2.07;;
5133;SDS011;2585;48.696;10.066;2024-03-25T13:47:03;2.80;;;1.97;;
5133;SDS011;2585;48.696;10.066;2024-03-25T13:49:29;5.10;;;2.23;;
5133;SDS011;2585;48.696;10.066;2024-03-25T13:51:58;5.43;;;2.20;;
5133;SDS011;2585;48.696;10.066;2024-03-25T13:54:24;3.70;;;2.13;;
5133;SDS011;2585;48.696;10.066;2024-03-25T13:56:51;5.30;;;2.63;;
5133;SDS011;2585;48.696;10.066;2024-03-25T13:59:18;4.00;;;2.13;;
5133;SDS011;2585;48.696;10.066;2024-03-25T14:01:44;3.00;;;2.03;;
5133;SDS011;2585;48.696;10.066;2024-03-25T14:04:10;4.13;;;2.60;;
5133;SDS011;2585;48.696;10.066;2024-03-25T14:06:36;5.17;;;2.30;;
5133;SDS011;2585;48.696;10.066;2024-03-25T14:09:02;3.80;;;2.23;;
5133;SDS011;2585;48.696;10.066;2024-03-25T14:11:35;3.83;;;1.73;;
5133;SDS011;2585;48.696;10.066;2024-03-25T14:14:01;2.83;;;1.60;;
5133;SDS011;2585;48.696;10.066;2024-03-25T14:16:28;5.80;;;2.40;;
5133;SDS011;2585;48.696;10.066;2024-03-25T14:18:54;4.47;;;1.80;;
5133;SDS011;2585;48.696;10.066;2024-03-25T14:21:20;2.47;;;2.10;;
5133;SDS011;2585;48.696;10.066;2024-03-25T14:23:45;4.07;;;2.00;;
5133;SDS011;2585;48.696;10.066;2024-03-25T14:26:12;2.83;;;2.20;;
5133;SDS011;2585;48.696;10.066;2024-03-25T14:28:40;4.40;;;2.13;;
5133;SDS011;2585;48.696;10.066;2024-03-25T14:31:06;3.10;;;2.20;;
5133;SDS011;2585;48.696;10.066;2024-03-25T14:33:32;7.07;;;1.80;;
5133;SDS011;2585;48.696;10.066;2024-03-25T14:35:58;3.57;;;1.90;;
5133;SDS011;2585;48.696;10.066;2024-03-25T14:38:24;2.80;;;2.00;;
5133;SDS011;2585;48.696;10.066;2024-03-25T14:40:50;4.77;;;2.13;;
5133;SDS011;2585;48.696;10.066;2024-03-25T14:43:15;2.87;;;2.00;;
5133;SDS011;2585;48.696;10.066;2024-03-25T14:45:44;5.37;;;2.27;;
5133;SDS011;2585;48.696;10.066;2024-03-25T14:48:11;6.07;;;2.50;;
5133;SDS011;2585;48.696;10.066;2024-03-25T14:50:37;4.07;;;2.20;;
5133;SDS011;2585;48.696;10.066;2024-03-25T14:53:03;4.60;;;2.63;;
5133;SDS011;2585;48.696;10.066;2024-03-25T14:55:29;2.93;;;2.00;;
5133;SDS011;2585;48.696;10.066;2024-03-25T14:57:56;2.70;;;1.60;;
5133;SDS011;2585;48.696;10.066;2024-03-25T15:00:22;3.17;;;1.50;;
5133;SDS011;2585;48.696;10.066;2024-03-25T15:02:50;4.47;;;2.07;;
5133;SDS011;2585;48.696;10.066;2024-03-25T15:05:16;2.60;;;1.90;;